createdAt,value
2019-03-05T00:01:16.924Z,5.30
2019-03-05T00:03:47.189Z,2.73
2019-03-05T00:06:20.574Z,1.70
2019-03-05T00:08:55.568Z,3.03
2019-03-05T00:11:24.961Z,4.83
2019-03-05T00:13:55.557Z,1.80
2019-03-05T00:16:24.922Z,2.87
2019-03-05T00:18:54.320Z,2.17
2019-03-05T00:21:23.419Z,4.63
2019-03-05T00:23:58.499Z,2.60
2019-03-05T00:26:33.562Z,2.33
2019-03-05T00:29:20.292Z,3.93
2019-03-05T00:31:50.745Z,2.23
2019-03-05T00:34:37.924Z,1.90
2019-03-05T00:37:33.189Z,5.33
2019-03-05T00:40:19.991Z,1.67
2019-03-05T00:43:13.097Z,2.33
2019-03-05T00:45:58.877Z,8.53
2019-03-05T00:49:14.805Z,2.33
2019-03-05T00:52:13.286Z,1.77
2019-03-05T00:55:27.148Z,1.30
2019-03-05T00:58:28.043Z,1.40
2019-03-05T01:01:15.878Z,1.60
2019-03-05T01:04:36.922Z,2.30
2019-03-05T01:07:08.754Z,3.90
2019-03-05T01:09:38.328Z,1.40
2019-03-05T01:12:09.320Z,8.93
2019-03-05T01:14:39.654Z,3.57
2019-03-05T01:17:09.923Z,3.67
2019-03-05T01:19:39.777Z,11.67
2019-03-05T01:22:12.451Z,3.10
2019-03-05T01:24:41.675Z,1.77
2019-03-05T01:27:10.833Z,2.93
2019-03-05T01:29:42.030Z,1.30
2019-03-05T01:32:37.218Z,2.60
2019-03-05T01:35:12.903Z,1.77
2019-03-05T01:37:43.491Z,9.33
2019-03-05T01:40:37.017Z,1.80
2019-03-05T01:43:06.190Z,2.27
2019-03-05T01:45:36.684Z,2.63
2019-03-05T01:48:06.238Z,5.73
2019-03-05T01:50:35.374Z,1.30
2019-03-05T01:53:05.848Z,3.17
2019-03-05T01:55:34.936Z,1.57
2019-03-05T01:58:05.854Z,1.50
2019-03-05T02:00:38.964Z,5.23
2019-03-05T02:03:08.079Z,3.47
2019-03-05T02:05:40.195Z,1.73
2019-03-05T02:08:12.440Z,3.10
2019-03-05T02:10:42.140Z,1.43
2019-03-05T02:13:12.420Z,1.40
2019-03-05T02:15:43.736Z,2.10
2019-03-05T02:18:27.924Z,2.80
2019-03-05T02:20:58.293Z,5.13
2019-03-05T02:23:32.346Z,2.17
2019-03-05T02:26:37.907Z,2.20
2019-03-05T02:29:40.939Z,2.83
2019-03-05T02:32:43.201Z,3.13
2019-03-05T02:35:30.825Z,1.50
2019-03-05T02:38:41.172Z,2.43
2019-03-05T02:41:38.827Z,2.20
2019-03-05T02:44:54.628Z,7.83
2019-03-05T02:48:09.714Z,4.77
2019-03-05T02:51:20.056Z,4.03
2019-03-05T02:54:16.335Z,1.80
2019-03-05T02:57:12.272Z,5.00
2019-03-05T02:59:43.211Z,1.93
2019-03-05T03:02:33.198Z,1.53
2019-03-05T03:05:41.385Z,1.70
2019-03-05T03:07:58.547Z,6.30
2019-03-05T03:10:27.685Z,3.20
2019-03-05T03:12:57.013Z,2.50
2019-03-05T03:15:50.413Z,3.07
2019-03-05T03:18:20.782Z,3.10
2019-03-05T03:20:54.561Z,2.27
2019-03-05T03:23:26.849Z,4.10
2019-03-05T03:25:59.010Z,1.87
2019-03-05T03:28:28.200Z,1.93
2019-03-05T03:31:02.707Z,1.30
2019-03-05T03:33:31.863Z,2.90
2019-03-05T03:36:01.026Z,1.83
2019-03-05T03:38:30.147Z,1.33
2019-03-05T03:41:00.372Z,1.40
2019-03-05T03:43:29.528Z,2.57
2019-03-05T03:45:58.771Z,1.40
2019-03-05T03:48:37.671Z,2.60
2019-03-05T03:51:08.974Z,2.10
2019-03-05T03:53:38.346Z,1.80
2019-03-05T03:56:10.181Z,7.03
2019-03-05T03:58:42.406Z,2.50
2019-03-05T04:01:11.653Z,2.23
2019-03-05T04:03:44.971Z,4.43
2019-03-05T04:06:14.314Z,3.63
2019-03-05T04:08:43.637Z,4.03
2019-03-05T04:11:12.963Z,1.80
2019-03-05T04:13:42.134Z,1.40
2019-03-05T04:16:14.860Z,3.80
2019-03-05T04:18:45.495Z,3.93
2019-03-05T04:21:20.178Z,3.20
2019-03-05T04:23:49.498Z,2.30
2019-03-05T04:26:21.058Z,3.80
2019-03-05T04:28:50.346Z,2.93
2019-03-05T04:31:22.615Z,2.90
2019-03-05T04:33:54.625Z,1.53
2019-03-05T04:36:25.599Z,2.13
2019-03-05T04:38:55.128Z,2.73
2019-03-05T04:41:30.480Z,1.20
2019-03-05T04:43:59.928Z,1.23
2019-03-05T04:46:36.595Z,1.20
2019-03-05T04:49:33.930Z,1.80
2019-03-05T04:52:06.007Z,1.80
2019-03-05T04:54:36.761Z,4.93
2019-03-05T04:57:07.719Z,2.03
2019-03-05T04:59:37.099Z,2.70
2019-03-05T05:02:07.105Z,2.87
2019-03-05T05:04:36.249Z,1.70
2019-03-05T05:07:05.569Z,2.67
2019-03-05T05:09:42.008Z,1.30
2019-03-05T05:12:11.349Z,1.70
2019-03-05T05:14:40.449Z,9.07
2019-03-05T05:17:12.802Z,2.40
2019-03-05T05:19:44.283Z,3.17
2019-03-05T05:22:13.625Z,2.37
2019-03-05T05:24:44.355Z,1.57
2019-03-05T05:27:19.942Z,2.43
2019-03-05T05:29:49.073Z,1.47
2019-03-05T05:32:18.355Z,1.57
2019-03-05T05:34:50.442Z,6.20
2019-03-05T05:37:30.636Z,3.77
2019-03-05T05:40:22.288Z,1.67
2019-03-05T05:42:53.938Z,2.63
2019-03-05T05:45:24.686Z,1.77
2019-03-05T05:47:59.888Z,2.53
2019-03-05T05:50:30.683Z,2.77
2019-03-05T05:53:02.339Z,4.07
2019-03-05T05:55:31.528Z,2.23
2019-03-05T05:58:05.721Z,2.87
2019-03-05T06:00:42.317Z,1.93
2019-03-05T06:03:11.459Z,4.20
2019-03-05T06:05:40.589Z,3.43
2019-03-05T06:08:10.037Z,2.90
2019-03-05T06:10:39.619Z,2.43
2019-03-05T06:13:10.844Z,1.80
2019-03-05T06:15:39.659Z,1.73
2019-03-05T06:18:08.827Z,2.33
2019-03-05T06:20:37.964Z,1.53
2019-03-05T06:23:09.108Z,1.60
2019-03-05T06:25:38.232Z,2.40
2019-03-05T06:28:10.236Z,1.60
2019-03-05T06:30:39.478Z,2.77
2019-03-05T06:33:15.182Z,1.30
2019-03-05T06:35:45.615Z,2.73
2019-03-05T06:38:17.599Z,2.27
2019-03-05T06:40:48.229Z,4.10
2019-03-05T06:43:17.405Z,2.50
2019-03-05T06:45:46.533Z,7.03
2019-03-05T06:48:17.769Z,2.07
2019-03-05T06:50:49.632Z,1.50
2019-03-05T06:53:18.824Z,3.30
2019-03-05T06:55:48.048Z,2.00
2019-03-05T06:58:17.275Z,1.20
2019-03-05T07:00:57.472Z,1.50
2019-03-05T07:03:31.864Z,1.80
2019-03-05T07:06:36.455Z,2.13
2019-03-05T07:09:20.022Z,1.60
2019-03-05T07:12:41.111Z,1.50
2019-03-05T07:15:55.674Z,2.50
2019-03-05T07:18:34.301Z,7.43
2019-03-05T07:21:36.833Z,1.87
2019-03-05T07:24:47.744Z,3.10
2019-03-05T07:27:29.996Z,1.27
2019-03-05T07:30:09.199Z,1.37
2019-03-05T07:32:38.693Z,2.23
2019-03-05T07:35:09.509Z,2.37
2019-03-05T07:37:41.547Z,1.80
2019-03-05T07:40:24.704Z,1.37
2019-03-05T07:42:53.877Z,2.37
2019-03-05T07:45:23.899Z,3.10
2019-03-05T07:47:53.053Z,1.40
2019-03-05T07:50:22.232Z,3.77
2019-03-05T07:52:51.359Z,5.97
2019-03-05T07:55:34.104Z,1.10
2019-03-05T07:58:03.739Z,3.57
2019-03-05T08:00:36.064Z,1.67
2019-03-05T08:03:08.253Z,1.87
2019-03-05T08:05:40.927Z,1.87
2019-03-05T08:08:45.952Z,3.30
2019-03-05T08:11:15.300Z,2.57
2019-03-05T08:14:25.341Z,1.40
2019-03-05T08:16:57.733Z,5.83
2019-03-05T08:19:27.102Z,1.40
2019-03-05T08:21:59.077Z,2.07
2019-03-05T08:24:28.398Z,1.20
2019-03-05T08:27:00.293Z,1.63
2019-03-05T08:29:35.392Z,1.90
2019-03-05T08:32:04.829Z,1.20
2019-03-05T08:34:36.616Z,1.73
2019-03-05T08:37:30.099Z,3.30
2019-03-05T08:39:59.295Z,1.43
2019-03-05T08:42:28.499Z,2.03
2019-03-05T08:44:59.358Z,1.83
2019-03-05T08:47:28.655Z,3.30
2019-03-05T08:49:59.840Z,2.60
2019-03-05T08:52:29.718Z,2.03
2019-03-05T08:55:00.369Z,1.30
2019-03-05T08:57:32.515Z,1.30
2019-03-05T09:00:05.981Z,1.87
2019-03-05T09:02:47.998Z,1.43
2019-03-05T09:05:13.807Z,1.30
2019-03-05T09:07:43.137Z,3.63
2019-03-05T09:10:16.000Z,2.93
2019-03-05T09:12:45.119Z,2.90
2019-03-05T09:15:16.167Z,3.10
2019-03-05T09:17:45.566Z,3.07
2019-03-05T09:20:18.743Z,2.27
2019-03-05T09:22:50.440Z,2.50
2019-03-05T09:25:21.569Z,2.60
2019-03-05T09:27:50.704Z,2.27
2019-03-05T09:30:22.189Z,2.03
2019-03-05T09:32:52.289Z,2.53
2019-03-05T09:35:21.690Z,2.70
2019-03-05T09:37:50.858Z,2.47
2019-03-05T09:40:27.465Z,1.20
2019-03-05T09:43:05.933Z,2.97
2019-03-05T09:45:36.156Z,1.60
2019-03-05T09:48:11.859Z,1.20
2019-03-05T09:50:41.159Z,2.87
2019-03-05T09:53:11.331Z,1.20
2019-03-05T09:55:46.606Z,1.50
2019-03-05T09:58:24.144Z,10.43
2019-03-05T10:00:53.319Z,1.77
2019-03-05T10:03:22.495Z,1.20
2019-03-05T10:05:51.601Z,1.20
2019-03-05T10:08:32.506Z,6.50
2019-03-05T10:11:07.049Z,6.30
2019-03-05T10:13:43.570Z,3.00
2019-03-05T10:16:12.970Z,1.50
2019-03-05T10:18:45.031Z,1.47
2019-03-05T10:21:15.970Z,1.60
2019-03-05T10:23:54.580Z,2.50
2019-03-05T10:26:27.515Z,2.60
2019-03-05T10:28:57.806Z,1.50
2019-03-05T10:31:27.221Z,2.87
2019-03-05T10:33:58.470Z,2.37
2019-03-05T10:36:31.030Z,1.33
2019-03-05T10:39:01.513Z,1.40
2019-03-05T10:41:31.534Z,3.10
2019-03-05T10:44:04.899Z,4.73
2019-03-05T10:46:34.379Z,3.27
2019-03-05T10:49:03.785Z,1.23
2019-03-05T10:51:33.688Z,2.20
2019-03-05T10:54:04.073Z,3.93
2019-03-05T10:56:38.637Z,2.47
2019-03-05T10:59:07.941Z,1.73
2019-03-05T11:01:38.292Z,2.63
2019-03-05T11:04:07.675Z,3.53
2019-03-05T11:06:40.749Z,3.33
2019-03-05T11:09:10.960Z,3.73
2019-03-05T11:11:40.315Z,3.07
2019-03-05T11:14:10.826Z,2.50
2019-03-05T11:16:40.350Z,2.47
2019-03-05T11:19:09.787Z,1.50
2019-03-05T11:21:40.046Z,1.93
2019-03-05T11:24:13.652Z,1.60
2019-03-05T11:26:46.237Z,2.80
2019-03-05T11:29:16.087Z,3.77
2019-03-05T11:31:45.544Z,1.20
2019-03-05T11:34:19.212Z,3.97
2019-03-05T11:36:48.372Z,1.77
2019-03-05T11:39:21.105Z,2.90
2019-03-05T11:41:51.760Z,2.47
2019-03-05T11:44:21.043Z,2.90
2019-03-05T11:46:50.259Z,2.23
2019-03-05T11:49:20.709Z,1.83
2019-03-05T11:51:59.585Z,1.47
2019-03-05T11:54:32.807Z,5.07
2019-03-05T11:57:09.528Z,1.50
2019-03-05T11:59:41.651Z,1.90
2019-03-05T12:02:21.403Z,2.00
2019-03-05T12:04:50.562Z,2.80
2019-03-05T12:07:20.956Z,1.73
2019-03-05T12:09:50.557Z,1.53
2019-03-05T12:12:21.450Z,1.77
2019-03-05T12:14:51.531Z,1.50
2019-03-05T12:17:23.034Z,1.77
2019-03-05T12:19:53.220Z,1.10
2019-03-05T12:22:27.996Z,1.60
2019-03-05T12:25:10.064Z,1.83
2019-03-05T12:27:39.181Z,1.20
2019-03-05T12:30:10.219Z,1.50
2019-03-05T12:32:39.527Z,3.97
2019-03-05T12:35:09.226Z,2.13
2019-03-05T12:37:40.063Z,1.83
2019-03-05T12:40:12.931Z,2.63
2019-03-05T12:42:47.764Z,2.00
2019-03-05T12:45:18.643Z,3.20
2019-03-05T12:47:49.959Z,1.40
2019-03-05T12:50:37.699Z,6.90
2019-03-05T12:53:17.481Z,1.60
2019-03-05T12:55:46.660Z,1.90
2019-03-05T12:58:26.025Z,3.43
2019-03-05T13:00:47.287Z,2.80
2019-03-05T13:03:26.070Z,2.30
2019-03-05T13:05:57.296Z,1.27
2019-03-05T13:08:28.618Z,1.10
2019-03-05T13:10:59.339Z,1.47
2019-03-05T13:13:37.483Z,2.13
2019-03-05T13:16:16.009Z,1.40
2019-03-05T13:18:45.246Z,4.17
2019-03-05T13:21:14.460Z,1.40
2019-03-05T13:23:48.392Z,1.10
2019-03-05T13:26:17.810Z,2.10
2019-03-05T13:28:48.689Z,1.77
2019-03-05T13:31:19.435Z,1.43
2019-03-05T13:33:53.843Z,1.10
2019-03-05T13:36:26.811Z,2.80
2019-03-05T13:39:01.988Z,1.50
2019-03-05T13:41:34.494Z,1.33
2019-03-05T13:44:08.088Z,1.50
2019-03-05T13:46:38.910Z,1.87
2019-03-05T13:49:27.661Z,2.30
2019-03-05T13:52:35.957Z,1.80
2019-03-05T13:55:44.048Z,1.93
2019-03-05T13:59:09.742Z,1.63
2019-03-05T14:01:39.246Z,2.30
2019-03-05T14:04:16.895Z,4.50
2019-03-05T14:07:30.326Z,2.57
2019-03-05T14:10:05.678Z,1.80
2019-03-05T14:12:33.255Z,2.97
2019-03-05T14:15:04.863Z,2.63
2019-03-05T14:17:43.612Z,1.50
2019-03-05T14:20:16.250Z,1.87
2019-03-05T14:22:49.948Z,2.40
2019-03-05T14:25:20.355Z,2.10
2019-03-05T14:27:52.414Z,1.73
2019-03-05T14:30:22.174Z,1.53
2019-03-05T14:32:51.326Z,1.20
2019-03-05T14:35:22.626Z,1.97
2019-03-05T14:37:54.759Z,1.40
2019-03-05T14:40:32.126Z,1.37
2019-03-05T14:43:01.776Z,1.37
2019-03-05T14:45:41.292Z,2.30
2019-03-05T14:48:11.798Z,1.40
2019-03-05T14:50:42.529Z,1.97
2019-03-05T14:53:11.716Z,1.40
2019-03-05T14:55:40.895Z,1.73
2019-03-05T14:58:13.830Z,1.87
2019-03-05T15:00:48.590Z,2.40
2019-03-05T15:03:20.875Z,1.63
2019-03-05T15:05:50.789Z,1.30
2019-03-05T15:08:19.968Z,1.93
2019-03-05T15:10:49.134Z,1.40
2019-03-05T15:13:20.067Z,1.60
2019-03-05T15:15:49.237Z,2.77
2019-03-05T15:18:20.543Z,2.20
2019-03-05T15:20:58.784Z,1.50
2019-03-05T15:23:33.358Z,3.30
2019-03-05T15:26:02.834Z,2.30
2019-03-05T15:28:34.205Z,2.63
2019-03-05T15:31:03.413Z,3.27
2019-03-05T15:33:32.574Z,2.40
2019-03-05T15:36:01.765Z,9.17
2019-03-05T15:38:33.330Z,3.20
2019-03-05T15:41:02.628Z,2.07
2019-03-05T15:43:31.828Z,2.87
2019-03-05T15:46:00.992Z,4.60
2019-03-05T15:48:31.504Z,2.50
2019-03-05T15:51:01.412Z,1.23
2019-03-05T15:53:34.031Z,2.67
2019-03-05T15:56:04.602Z,1.90
2019-03-05T15:58:33.959Z,2.53
2019-03-05T16:01:03.127Z,1.60
2019-03-05T16:03:32.549Z,3.07
2019-03-05T16:06:03.487Z,2.20
2019-03-05T16:08:36.270Z,1.77
2019-03-05T16:11:05.439Z,3.73
2019-03-05T16:13:34.638Z,1.77
2019-03-05T16:16:04.478Z,1.77
2019-03-05T16:18:33.638Z,2.47
2019-03-05T16:21:06.786Z,1.93
2019-03-05T16:23:34.771Z,1.50
2019-03-05T16:26:03.935Z,1.73
2019-03-05T16:28:34.514Z,2.00
2019-03-05T16:31:21.894Z,1.90
2019-03-05T16:34:13.209Z,5.53
2019-03-05T16:37:14.536Z,3.03
2019-03-05T16:40:12.539Z,1.83
2019-03-05T16:43:02.501Z,2.10
2019-03-05T16:45:48.745Z,1.97
2019-03-05T16:48:39.002Z,1.50
2019-03-05T16:51:31.300Z,2.37
2019-03-05T16:54:28.381Z,2.97
2019-03-05T16:57:28.551Z,2.97
2019-03-05T17:00:15.505Z,1.90
2019-03-05T17:03:02.175Z,2.17
2019-03-05T17:05:58.614Z,2.50
2019-03-05T17:09:04.730Z,1.80
2019-03-05T17:12:02.473Z,3.30
2019-03-05T17:14:34.798Z,2.90
2019-03-05T17:17:04.232Z,3.20
2019-03-05T17:19:33.342Z,1.90
2019-03-05T17:22:04.529Z,2.60
2019-03-05T17:24:38.674Z,2.70
2019-03-05T17:27:10.261Z,3.57
2019-03-05T17:29:41.649Z,1.97
2019-03-05T17:32:16.791Z,1.40
2019-03-05T17:34:47.723Z,1.40
2019-03-05T17:37:16.864Z,1.67
2019-03-05T17:39:50.899Z,1.73
2019-03-05T17:42:23.657Z,1.67
2019-03-05T17:44:52.961Z,1.20
2019-03-05T17:47:25.074Z,1.43
2019-03-05T17:49:55.317Z,1.27
2019-03-05T17:52:28.052Z,1.40
2019-03-05T17:54:57.132Z,1.07
2019-03-05T17:57:26.386Z,3.00
2019-03-05T17:59:55.553Z,2.23
2019-03-05T18:02:30.007Z,1.33
2019-03-05T18:04:59.204Z,1.30
2019-03-05T18:07:30.112Z,1.30
2019-03-05T18:09:59.303Z,1.60
2019-03-05T18:12:30.295Z,2.70
2019-03-05T18:14:59.872Z,2.03
2019-03-05T18:17:33.478Z,3.07
2019-03-05T18:20:02.500Z,2.27
2019-03-05T18:22:33.025Z,1.80
2019-03-05T18:25:02.632Z,2.93
2019-03-05T18:27:31.780Z,2.40
2019-03-05T18:30:00.952Z,2.80
2019-03-05T18:32:30.095Z,3.00
2019-03-05T18:35:03.598Z,3.00
2019-03-05T18:37:35.866Z,2.90
2019-03-05T18:40:05.865Z,2.33
2019-03-05T18:42:41.751Z,2.53
2019-03-05T18:45:14.349Z,2.90
2019-03-05T18:47:45.252Z,2.37
2019-03-05T18:50:17.443Z,3.23
2019-03-05T18:52:47.009Z,3.00
2019-03-05T18:55:19.280Z,3.10
2019-03-05T18:57:48.689Z,2.30
2019-03-05T19:00:22.551Z,2.20
2019-03-05T19:02:52.971Z,3.00
2019-03-05T19:05:24.027Z,3.40
2019-03-05T19:08:00.983Z,1.87
2019-03-05T19:10:33.697Z,1.53
2019-03-05T19:13:06.622Z,1.80
2019-03-05T19:15:37.393Z,2.93
2019-03-05T19:18:07.361Z,1.80
2019-03-05T19:20:39.013Z,2.80
2019-03-05T19:23:10.003Z,3.40
2019-03-05T19:25:40.670Z,4.80
2019-03-05T19:28:11.458Z,5.00
2019-03-05T19:31:03.581Z,5.47
2019-03-05T19:33:36.465Z,7.13
2019-03-05T19:36:05.719Z,7.90
2019-03-05T19:38:34.893Z,5.33
2019-03-05T19:41:05.105Z,4.53
2019-03-05T19:43:34.268Z,3.30
2019-03-05T19:46:04.565Z,4.37
2019-03-05T19:48:33.789Z,5.43
2019-03-05T19:51:02.913Z,6.43
2019-03-05T19:53:32.161Z,3.90
2019-03-05T19:56:01.332Z,5.30
2019-03-05T19:58:31.553Z,5.47
2019-03-05T20:01:12.529Z,2.27
2019-03-05T20:03:44.145Z,4.43
2019-03-05T20:06:16.544Z,2.53
2019-03-05T20:08:46.129Z,3.70
2019-03-05T20:11:17.380Z,6.60
2019-03-05T20:13:49.112Z,2.50
2019-03-05T20:16:19.762Z,4.10
2019-03-05T20:18:49.266Z,3.30
2019-03-05T20:21:18.457Z,3.07
2019-03-05T20:23:47.661Z,3.60
2019-03-05T20:26:16.810Z,3.37
2019-03-05T20:28:46.072Z,2.77
2019-03-05T20:31:15.384Z,4.30
2019-03-05T20:33:49.112Z,2.90
2019-03-05T20:36:18.284Z,2.60
2019-03-05T20:38:52.651Z,2.80
2019-03-05T20:41:22.836Z,5.50
2019-03-05T20:43:53.185Z,4.43
2019-03-05T20:46:28.546Z,1.77
2019-03-05T20:49:03.986Z,2.30
2019-03-05T20:51:33.193Z,3.40
2019-03-05T20:54:02.534Z,2.93
2019-03-05T20:56:33.022Z,3.03
2019-03-05T20:59:07.514Z,2.20
2019-03-05T21:01:36.671Z,2.37
2019-03-05T21:04:06.189Z,2.70
2019-03-05T21:06:38.425Z,3.97
2019-03-05T21:09:23.257Z,2.70
2019-03-05T21:11:53.270Z,3.83
2019-03-05T21:14:22.583Z,3.33
2019-03-05T21:16:52.189Z,2.30
2019-03-05T21:19:23.246Z,2.43
2019-03-05T21:21:55.240Z,2.50
2019-03-05T21:24:27.654Z,2.63
2019-03-05T21:27:00.029Z,6.10
2019-03-05T21:29:29.158Z,18.27
2019-03-05T21:31:58.299Z,22.13
2019-03-05T21:34:27.402Z,17.90
2019-03-05T21:37:00.681Z,11.40
2019-03-05T21:39:31.468Z,5.03
2019-03-05T21:42:01.714Z,4.77
2019-03-05T21:44:32.399Z,6.47
2019-03-05T21:47:01.522Z,3.83
2019-03-05T21:49:32.076Z,4.00
2019-03-05T21:52:03.628Z,5.60
2019-03-05T21:54:32.785Z,5.63
2019-03-05T21:57:05.722Z,3.40
2019-03-05T21:59:34.838Z,7.63
2019-03-05T22:02:06.235Z,6.10
2019-03-05T22:04:36.633Z,3.43
2019-03-05T22:07:08.928Z,3.63
2019-03-05T22:09:38.153Z,3.13
2019-03-05T22:12:08.457Z,8.23
2019-03-05T22:14:39.364Z,3.40
2019-03-05T22:17:12.169Z,2.60
2019-03-05T22:19:42.849Z,3.43
2019-03-05T22:22:12.319Z,4.70
2019-03-05T22:24:43.660Z,3.07
2019-03-05T22:27:13.849Z,3.73
2019-03-05T22:29:49.570Z,7.83
2019-03-05T22:32:19.810Z,3.50
2019-03-05T22:34:48.874Z,6.20
2019-03-05T22:37:19.191Z,6.20
2019-03-05T22:39:49.936Z,5.10
2019-03-05T22:42:21.824Z,4.97
2019-03-05T22:44:52.487Z,6.37
2019-03-05T22:47:26.404Z,5.00
2019-03-05T22:49:58.392Z,6.27
2019-03-05T22:52:27.532Z,6.70
2019-03-05T22:54:58.371Z,7.90
2019-03-05T22:57:28.577Z,6.87
2019-03-05T23:00:00.495Z,5.83
2019-03-05T23:02:33.031Z,5.40
2019-03-05T23:05:03.075Z,7.93
2019-03-05T23:07:35.116Z,7.47
2019-03-05T23:10:17.919Z,9.30
2019-03-05T23:12:50.801Z,7.20
2019-03-05T23:15:24.227Z,7.33
2019-03-05T23:17:56.090Z,12.07
2019-03-05T23:20:34.665Z,8.23
2019-03-05T23:23:03.795Z,8.83
2019-03-05T23:25:32.882Z,7.00
2019-03-05T23:28:04.126Z,10.00
2019-03-05T23:30:33.294Z,7.70
2019-03-05T23:33:04.507Z,5.70
2019-03-05T23:35:35.327Z,8.83
2019-03-05T23:38:06.786Z,6.77
2019-03-05T23:40:38.672Z,9.03
2019-03-05T23:43:10.517Z,10.77
2019-03-05T23:45:42.333Z,8.50
2019-03-05T23:48:11.407Z,7.77
2019-03-05T23:50:41.947Z,7.80
2019-03-05T23:53:13.988Z,8.70
2019-03-05T23:55:45.564Z,9.50
2019-03-05T23:58:14.660Z,11.30
